sensor_id;sensor_type;location;lat;lon;timestamp;temperature;humidity
40758;DHT22;26462;47.384;19.218;2023-04-24T00:01:16;13.80;77.70
40758;DHT22;26462;47.384;19.218;2023-04-24T00:03:43;13.70;77.90
40758;DHT22;26462;47.384;19.218;2023-04-24T00:06:11;13.70;77.60
40758;DHT22;26462;47.384;19.218;2023-04-24T00:08:38;13.70;78.50
40758;DHT22;26462;47.384;19.218;2023-04-24T00:11:05;13.70;78.60
40758;DHT22;26462;47.384;19.218;2023-04-24T00:13:32;13.60;78.20
40758;DHT22;26462;47.384;19.218;2023-04-24T00:15:59;13.60;78.30
40758;DHT22;26462;47.384;19.218;2023-04-24T00:18:26;13.60;78.80
40758;DHT22;26462;47.384;19.218;2023-04-24T00:20:53;13.50;78.90
40758;DHT22;26462;47.384;19.218;2023-04-24T00:23:20;13.60;79.30
40758;DHT22;26462;47.384;19.218;2023-04-24T00:25:47;13.60;79.10
40758;DHT22;26462;47.384;19.218;2023-04-24T00:28:14;13.60;80.10
40758;DHT22;26462;47.384;19.218;2023-04-24T00:30:42;13.60;79.90
40758;DHT22;26462;47.384;19.218;2023-04-24T00:33:09;13.60;79.50
40758;DHT22;26462;47.384;19.218;2023-04-24T00:35:36;13.50;79.90
40758;DHT22;26462;47.384;19.218;2023-04-24T00:38:03;13.50;80.50
40758;DHT22;26462;47.384;19.218;2023-04-24T00:40:30;13.60;81.10
40758;DHT22;26462;47.384;19.218;2023-04-24T00:42:57;13.60;80.50
40758;DHT22;26462;47.384;19.218;2023-04-24T00:45:25;13.60;80.60
40758;DHT22;26462;47.384;19.218;2023-04-24T00:47:52;13.60;80.10
40758;DHT22;26462;47.384;19.218;2023-04-24T00:50:21;13.60;80.40
40758;DHT22;26462;47.384;19.218;2023-04-24T00:52:49;13.60;80.70
40758;DHT22;26462;47.384;19.218;2023-04-24T00:55:17;13.60;81.10
40758;DHT22;26462;47.384;19.218;2023-04-24T00:57:45;13.60;80.90
40758;DHT22;26462;47.384;19.218;2023-04-24T01:00:15;13.60;82.60
40758;DHT22;26462;47.384;19.218;2023-04-24T01:02:43;13.60;82.50
40758;DHT22;26462;47.384;19.218;2023-04-24T01:05:13;13.60;83.50
40758;DHT22;26462;47.384;19.218;2023-04-24T01:07:45;13.60;84.30
40758;DHT22;26462;47.384;19.218;2023-04-24T01:10:14;13.50;83.90
40758;DHT22;26462;47.384;19.218;2023-04-24T01:12:41;13.50;84.20
40758;DHT22;26462;47.384;19.218;2023-04-24T01:15:11;13.50;84.50
40758;DHT22;26462;47.384;19.218;2023-04-24T01:17:38;13.50;83.70
40758;DHT22;26462;47.384;19.218;2023-04-24T01:20:06;13.40;84.60
40758;DHT22;26462;47.384;19.218;2023-04-24T01:22:34;13.50;84.60
40758;DHT22;26462;47.384;19.218;2023-04-24T01:25:01;13.50;84.60
40758;DHT22;26462;47.384;19.218;2023-04-24T01:27:29;13.50;84.80
40758;DHT22;26462;47.384;19.218;2023-04-24T01:29:56;13.50;84.10
40758;DHT22;26462;47.384;19.218;2023-04-24T01:32:24;13.60;84.30
40758;DHT22;26462;47.384;19.218;2023-04-24T01:34:52;13.60;85.10
40758;DHT22;26462;47.384;19.218;2023-04-24T01:37:19;13.50;85.70
40758;DHT22;26462;47.384;19.218;2023-04-24T01:39:46;13.50;87.40
40758;DHT22;26462;47.384;19.218;2023-04-24T01:42:13;13.50;88.70
40758;DHT22;26462;47.384;19.218;2023-04-24T01:44:41;13.50;88.80
40758;DHT22;26462;47.384;19.218;2023-04-24T01:47:09;13.50;89.70
40758;DHT22;26462;47.384;19.218;2023-04-24T01:49:38;13.40;90.40
40758;DHT22;26462;47.384;19.218;2023-04-24T01:52:06;13.40;90.70
40758;DHT22;26462;47.384;19.218;2023-04-24T01:54:33;13.40;91.00
40758;DHT22;26462;47.384;19.218;2023-04-24T01:57:01;13.30;91.60
40758;DHT22;26462;47.384;19.218;2023-04-24T01:59:30;13.30;92.60
40758;DHT22;26462;47.384;19.218;2023-04-24T02:01:59;13.30;93.20
40758;DHT22;26462;47.384;19.218;2023-04-24T02:04:26;13.30;93.90
40758;DHT22;26462;47.384;19.218;2023-04-24T02:06:53;13.30;95.50
40758;DHT22;26462;47.384;19.218;2023-04-24T02:09:21;13.30;96.80
40758;DHT22;26462;47.384;19.218;2023-04-24T02:11:48;13.20;97.70
40758;DHT22;26462;47.384;19.218;2023-04-24T02:14:15;13.30;98.70
40758;DHT22;26462;47.384;19.218;2023-04-24T02:16:43;13.20;99.00
40758;DHT22;26462;47.384;19.218;2023-04-24T02:19:11;13.10;99.90
40758;DHT22;26462;47.384;19.218;2023-04-24T02:21:38;13.10;99.90
40758;DHT22;26462;47.384;19.218;2023-04-24T02:24:07;13.00;99.90
40758;DHT22;26462;47.384;19.218;2023-04-24T02:26:35;13.10;99.90
40758;DHT22;26462;47.384;19.218;2023-04-24T02:29:02;13.10;99.90
40758;DHT22;26462;47.384;19.218;2023-04-24T02:31:29;13.20;99.90
40758;DHT22;26462;47.384;19.218;2023-04-24T02:33:56;13.20;99.90
40758;DHT22;26462;47.384;19.218;2023-04-24T02:36:23;13.20;99.90
40758;DHT22;26462;47.384;19.218;2023-04-24T02:38:50;13.20;99.90
40758;DHT22;26462;47.384;19.218;2023-04-24T02:41:17;13.30;99.90
40758;DHT22;26462;47.384;19.218;2023-04-24T02:43:44;13.20;99.90
40758;DHT22;26462;47.384;19.218;2023-04-24T02:46:11;13.30;99.90
40758;DHT22;26462;47.384;19.218;2023-04-24T02:48:39;13.20;99.90
40758;DHT22;26462;47.384;19.218;2023-04-24T02:51:06;13.20;99.90
40758;DHT22;26462;47.384;19.218;2023-04-24T02:53:33;13.20;99.90
40758;DHT22;26462;47.384;19.218;2023-04-24T02:56:01;13.20;99.90
40758;DHT22;26462;47.384;19.218;2023-04-24T02:58:28;13.20;99.90
40758;DHT22;26462;47.384;19.218;2023-04-24T03:00:55;13.50;99.90
40758;DHT22;26462;47.384;19.218;2023-04-24T03:03:23;13.10;99.90
40758;DHT22;26462;47.384;19.218;2023-04-24T03:05:51;13.10;99.90
40758;DHT22;26462;47.384;19.218;2023-04-24T03:08:18;13.10;99.90
40758;DHT22;26462;47.384;19.218;2023-04-24T03:10:45;13.10;99.90
40758;DHT22;26462;47.384;19.218;2023-04-24T03:13:15;13.10;99.90
40758;DHT22;26462;47.384;19.218;2023-04-24T03:15:43;13.20;99.90
40758;DHT22;26462;47.384;19.218;2023-04-24T03:18:10;13.20;99.90
40758;DHT22;26462;47.384;19.218;2023-04-24T03:20:37;13.20;99.90
40758;DHT22;26462;47.384;19.218;2023-04-24T03:23:04;13.20;99.90
40758;DHT22;26462;47.384;19.218;2023-04-24T03:25:31;13.20;99.90
40758;DHT22;26462;47.384;19.218;2023-04-24T03:27:58;13.10;99.90
40758;DHT22;26462;47.384;19.218;2023-04-24T03:30:38;13.10;99.90
40758;DHT22;26462;47.384;19.218;2023-04-24T03:33:06;13.10;99.90
40758;DHT22;26462;47.384;19.218;2023-04-24T03:35:37;13.10;99.90
40758;DHT22;26462;47.384;19.218;2023-04-24T03:38:08;13.00;99.90
40758;DHT22;26462;47.384;19.218;2023-04-24T03:40:53;13.00;99.90
40758;DHT22;26462;47.384;19.218;2023-04-24T03:43:40;13.00;99.90
40758;DHT22;26462;47.384;19.218;2023-04-24T03:46:08;13.00;99.90
40758;DHT22;26462;47.384;19.218;2023-04-24T03:48:40;13.00;99.90
40758;DHT22;26462;47.384;19.218;2023-04-24T03:51:09;12.90;99.90
40758;DHT22;26462;47.384;19.218;2023-04-24T03:53:38;13.00;99.90
40758;DHT22;26462;47.384;19.218;2023-04-24T03:56:06;13.00;99.90
40758;DHT22;26462;47.384;19.218;2023-04-24T03:58:33;13.00;99.90
40758;DHT22;26462;47.384;19.218;2023-04-24T04:01:01;12.90;99.90
40758;DHT22;26462;47.384;19.218;2023-04-24T04:03:43;12.90;99.90
40758;DHT22;26462;47.384;19.218;2023-04-24T04:06:13;12.80;99.90
40758;DHT22;26462;47.384;19.218;2023-04-24T04:08:40;12.80;99.90
40758;DHT22;26462;47.384;19.218;2023-04-24T04:11:08;12.80;99.90
40758;DHT22;26462;47.384;19.218;2023-04-24T04:13:35;12.90;99.90
40758;DHT22;26462;47.384;19.218;2023-04-24T04:16:03;12.90;99.90
40758;DHT22;26462;47.384;19.218;2023-04-24T04:18:30;12.90;99.90
40758;DHT22;26462;47.384;19.218;2023-04-24T04:20:57;12.90;99.90
40758;DHT22;26462;47.384;19.218;2023-04-24T04:23:25;12.90;99.90
40758;DHT22;26462;47.384;19.218;2023-04-24T04:26:14;12.90;99.90
40758;DHT22;26462;47.384;19.218;2023-04-24T04:28:58;12.90;99.90
40758;DHT22;26462;47.384;19.218;2023-04-24T04:31:25;12.90;99.90
40758;DHT22;26462;47.384;19.218;2023-04-24T04:33:52;12.90;99.90
40758;DHT22;26462;47.384;19.218;2023-04-24T04:36:21;13.00;99.90
40758;DHT22;26462;47.384;19.218;2023-04-24T04:38:53;13.00;99.90
40758;DHT22;26462;47.384;19.218;2023-04-24T04:41:44;13.10;99.90
40758;DHT22;26462;47.384;19.218;2023-04-24T04:44:13;13.10;99.90
40758;DHT22;26462;47.384;19.218;2023-04-24T04:46:41;13.10;99.90
40758;DHT22;26462;47.384;19.218;2023-04-24T04:49:30;13.10;99.90
40758;DHT22;26462;47.384;19.218;2023-04-24T04:51:57;13.10;99.90
40758;DHT22;26462;47.384;19.218;2023-04-24T04:54:26;13.00;99.90
40758;DHT22;26462;47.384;19.218;2023-04-24T04:56:54;12.90;99.90
40758;DHT22;26462;47.384;19.218;2023-04-24T04:59:21;12.90;99.90
40758;DHT22;26462;47.384;19.218;2023-04-24T05:01:53;12.90;99.90
40758;DHT22;26462;47.384;19.218;2023-04-24T05:04:21;12.90;99.90
40758;DHT22;26462;47.384;19.218;2023-04-24T05:06:48;12.80;99.90
40758;DHT22;26462;47.384;19.218;2023-04-24T05:09:18;12.80;99.90
40758;DHT22;26462;47.384;19.218;2023-04-24T05:11:53;12.90;99.90
40758;DHT22;26462;47.384;19.218;2023-04-24T05:14:22;12.90;99.90
40758;DHT22;26462;47.384;19.218;2023-04-24T05:16:49;12.90;99.90
40758;DHT22;26462;47.384;19.218;2023-04-24T05:19:19;12.90;99.90
40758;DHT22;26462;47.384;19.218;2023-04-24T05:21:47;12.90;99.90
40758;DHT22;26462;47.384;19.218;2023-04-24T05:24:14;12.80;99.90
40758;DHT22;26462;47.384;19.218;2023-04-24T05:27:00;12.90;99.90
40758;DHT22;26462;47.384;19.218;2023-04-24T05:29:34;13.00;99.90
40758;DHT22;26462;47.384;19.218;2023-04-24T05:32:03;13.00;99.90
40758;DHT22;26462;47.384;19.218;2023-04-24T05:34:31;13.10;99.90
40758;DHT22;26462;47.384;19.218;2023-04-24T05:36:58;13.10;99.90
40758;DHT22;26462;47.384;19.218;2023-04-24T05:39:25;13.10;99.90
40758;DHT22;26462;47.384;19.218;2023-04-24T05:41:54;13.30;99.90
40758;DHT22;26462;47.384;19.218;2023-04-24T05:44:22;13.30;99.90
40758;DHT22;26462;47.384;19.218;2023-04-24T05:46:49;13.40;99.90
40758;DHT22;26462;47.384;19.218;2023-04-24T05:49:17;13.40;99.90
40758;DHT22;26462;47.384;19.218;2023-04-24T05:51:45;13.30;99.90
40758;DHT22;26462;47.384;19.218;2023-04-24T05:54:12;13.40;99.90
40758;DHT22;26462;47.384;19.218;2023-04-24T05:56:40;13.30;99.90
40758;DHT22;26462;47.384;19.218;2023-04-24T05:59:11;13.50;99.90
40758;DHT22;26462;47.384;19.218;2023-04-24T06:01:38;13.50;99.90
40758;DHT22;26462;47.384;19.218;2023-04-24T06:04:12;13.50;99.90
40758;DHT22;26462;47.384;19.218;2023-04-24T06:06:43;13.50;99.90
40758;DHT22;26462;47.384;19.218;2023-04-24T06:09:10;13.50;99.90
40758;DHT22;26462;47.384;19.218;2023-04-24T06:11:37;13.40;99.90
40758;DHT22;26462;47.384;19.218;2023-04-24T06:14:05;13.50;99.90
40758;DHT22;26462;47.384;19.218;2023-04-24T06:16:41;13.60;99.90
40758;DHT22;26462;47.384;19.218;2023-04-24T06:19:17;13.70;99.90
40758;DHT22;26462;47.384;19.218;2023-04-24T06:21:46;13.60;99.90
40758;DHT22;26462;47.384;19.218;2023-04-24T06:24:14;13.60;99.90
40758;DHT22;26462;47.384;19.218;2023-04-24T06:26:42;13.60;99.90
40758;DHT22;26462;47.384;19.218;2023-04-24T06:29:09;13.60;99.90
40758;DHT22;26462;47.384;19.218;2023-04-24T06:31:37;13.60;99.90
40758;DHT22;26462;47.384;19.218;2023-04-24T06:34:04;13.50;99.90
40758;DHT22;26462;47.384;19.218;2023-04-24T06:36:32;13.40;99.90
40758;DHT22;26462;47.384;19.218;2023-04-24T06:39:01;13.40;99.90
40758;DHT22;26462;47.384;19.218;2023-04-24T06:41:28;13.30;99.90
40758;DHT22;26462;47.384;19.218;2023-04-24T06:43:56;13.40;99.90
40758;DHT22;26462;47.384;19.218;2023-04-24T06:46:23;13.50;99.90
40758;DHT22;26462;47.384;19.218;2023-04-24T06:48:56;13.50;99.90
40758;DHT22;26462;47.384;19.218;2023-04-24T06:51:24;13.60;99.90
40758;DHT22;26462;47.384;19.218;2023-04-24T06:53:52;13.50;99.90
40758;DHT22;26462;47.384;19.218;2023-04-24T06:56:20;13.50;99.90
40758;DHT22;26462;47.384;19.218;2023-04-24T06:58:47;13.60;99.90
40758;DHT22;26462;47.384;19.218;2023-04-24T07:01:15;13.70;99.90
40758;DHT22;26462;47.384;19.218;2023-04-24T07:03:42;13.80;99.90
40758;DHT22;26462;47.384;19.218;2023-04-24T07:06:09;13.70;99.90
40758;DHT22;26462;47.384;19.218;2023-04-24T07:08:38;13.70;99.90
40758;DHT22;26462;47.384;19.218;2023-04-24T07:11:05;13.70;99.90
40758;DHT22;26462;47.384;19.218;2023-04-24T07:13:32;13.80;99.90
40758;DHT22;26462;47.384;19.218;2023-04-24T07:16:02;13.80;99.90
40758;DHT22;26462;47.384;19.218;2023-04-24T07:18:29;13.90;99.90
40758;DHT22;26462;47.384;19.218;2023-04-24T07:20:57;13.90;99.90
40758;DHT22;26462;47.384;19.218;2023-04-24T07:23:24;14.00;99.90
40758;DHT22;26462;47.384;19.218;2023-04-24T07:25:51;14.10;99.90
40758;DHT22;26462;47.384;19.218;2023-04-24T07:28:19;14.10;99.90
40758;DHT22;26462;47.384;19.218;2023-04-24T07:30:46;14.20;99.90
40758;DHT22;26462;47.384;19.218;2023-04-24T07:33:13;14.20;99.90
40758;DHT22;26462;47.384;19.218;2023-04-24T07:35:40;14.20;99.90
40758;DHT22;26462;47.384;19.218;2023-04-24T07:38:07;14.20;99.90
40758;DHT22;26462;47.384;19.218;2023-04-24T07:40:34;14.20;99.90
40758;DHT22;26462;47.384;19.218;2023-04-24T07:43:01;14.30;99.90
40758;DHT22;26462;47.384;19.218;2023-04-24T07:45:28;14.30;99.90
40758;DHT22;26462;47.384;19.218;2023-04-24T07:47:56;14.40;99.90
40758;DHT22;26462;47.384;19.218;2023-04-24T07:50:23;14.60;99.90
40758;DHT22;26462;47.384;19.218;2023-04-24T07:52:50;14.60;99.90
40758;DHT22;26462;47.384;19.218;2023-04-24T07:55:18;14.80;99.90
40758;DHT22;26462;47.384;19.218;2023-04-24T07:57:49;14.90;99.90
40758;DHT22;26462;47.384;19.218;2023-04-24T08:00:16;15.00;99.90
40758;DHT22;26462;47.384;19.218;2023-04-24T08:02:43;15.10;99.90
40758;DHT22;26462;47.384;19.218;2023-04-24T08:05:11;15.20;99.90
40758;DHT22;26462;47.384;19.218;2023-04-24T08:07:38;15.20;99.90
40758;DHT22;26462;47.384;19.218;2023-04-24T08:10:05;15.20;99.90
40758;DHT22;26462;47.384;19.218;2023-04-24T08:12:33;15.40;99.90
40758;DHT22;26462;47.384;19.218;2023-04-24T08:15:00;15.60;99.90
40758;DHT22;26462;47.384;19.218;2023-04-24T08:17:27;15.50;99.90
40758;DHT22;26462;47.384;19.218;2023-04-24T08:19:54;15.60;99.90
40758;DHT22;26462;47.384;19.218;2023-04-24T08:22:28;15.80;99.90
40758;DHT22;26462;47.384;19.218;2023-04-24T08:24:55;16.00;99.90
40758;DHT22;26462;47.384;19.218;2023-04-24T08:27:23;16.10;99.90
40758;DHT22;26462;47.384;19.218;2023-04-24T08:29:52;16.10;99.90
40758;DHT22;26462;47.384;19.218;2023-04-24T08:32:19;16.00;99.90
40758;DHT22;26462;47.384;19.218;2023-04-24T08:34:47;15.90;99.90
40758;DHT22;26462;47.384;19.218;2023-04-24T08:37:15;15.70;99.90
40758;DHT22;26462;47.384;19.218;2023-04-24T08:39:42;15.60;99.90
40758;DHT22;26462;47.384;19.218;2023-04-24T08:42:11;15.60;99.90
40758;DHT22;26462;47.384;19.218;2023-04-24T08:44:40;15.70;99.90
40758;DHT22;26462;47.384;19.218;2023-04-24T08:47:07;15.60;99.90
40758;DHT22;26462;47.384;19.218;2023-04-24T08:49:36;15.80;99.90
40758;DHT22;26462;47.384;19.218;2023-04-24T08:52:05;15.80;99.90
40758;DHT22;26462;47.384;19.218;2023-04-24T08:54:34;15.90;99.90
40758;DHT22;26462;47.384;19.218;2023-04-24T08:57:03;16.10;99.90
40758;DHT22;26462;47.384;19.218;2023-04-24T08:59:31;16.30;99.90
40758;DHT22;26462;47.384;19.218;2023-04-24T09:01:59;16.40;99.90
40758;DHT22;26462;47.384;19.218;2023-04-24T09:04:28;16.50;99.90
40758;DHT22;26462;47.384;19.218;2023-04-24T09:06:57;16.50;99.90
40758;DHT22;26462;47.384;19.218;2023-04-24T09:09:25;16.50;99.70
40758;DHT22;26462;47.384;19.218;2023-04-24T09:11:53;16.50;99.20
40758;DHT22;26462;47.384;19.218;2023-04-24T09:14:23;16.50;99.20
40758;DHT22;26462;47.384;19.218;2023-04-24T09:16:50;16.80;99.60
40758;DHT22;26462;47.384;19.218;2023-04-24T09:19:18;17.00;99.30
40758;DHT22;26462;47.384;19.218;2023-04-24T09:21:46;17.20;98.70
40758;DHT22;26462;47.384;19.218;2023-04-24T09:24:20;17.60;98.00
40758;DHT22;26462;47.384;19.218;2023-04-24T09:26:58;17.90;95.50
40758;DHT22;26462;47.384;19.218;2023-04-24T09:29:26;18.10;96.10
40758;DHT22;26462;47.384;19.218;2023-04-24T09:31:53;17.90;93.70
40758;DHT22;26462;47.384;19.218;2023-04-24T09:34:25;17.90;93.50
40758;DHT22;26462;47.384;19.218;2023-04-24T09:36:52;17.90;93.50
40758;DHT22;26462;47.384;19.218;2023-04-24T09:39:20;17.60;92.90
40758;DHT22;26462;47.384;19.218;2023-04-24T09:41:54;17.60;93.40
40758;DHT22;26462;47.384;19.218;2023-04-24T09:44:27;17.80;91.90
40758;DHT22;26462;47.384;19.218;2023-04-24T09:46:57;18.20;92.50
40758;DHT22;26462;47.384;19.218;2023-04-24T09:49:29;18.40;92.20
40758;DHT22;26462;47.384;19.218;2023-04-24T09:52:07;18.70;90.70
40758;DHT22;26462;47.384;19.218;2023-04-24T09:54:35;18.30;90.80
40758;DHT22;26462;47.384;19.218;2023-04-24T09:57:09;18.20;90.70
40758;DHT22;26462;47.384;19.218;2023-04-24T09:59:42;18.10;91.30
40758;DHT22;26462;47.384;19.218;2023-04-24T10:02:18;18.00;90.90
40758;DHT22;26462;47.384;19.218;2023-04-24T10:04:57;18.00;89.60
40758;DHT22;26462;47.384;19.218;2023-04-24T10:07:26;18.00;89.90
40758;DHT22;26462;47.384;19.218;2023-04-24T10:09:54;18.10;89.60
40758;DHT22;26462;47.384;19.218;2023-04-24T10:12:21;18.20;89.70
40758;DHT22;26462;47.384;19.218;2023-04-24T10:14:49;18.30;90.00
40758;DHT22;26462;47.384;19.218;2023-04-24T10:17:17;18.40;90.10
40758;DHT22;26462;47.384;19.218;2023-04-24T10:19:45;18.50;88.70
40758;DHT22;26462;47.384;19.218;2023-04-24T10:22:14;18.80;89.70
40758;DHT22;26462;47.384;19.218;2023-04-24T10:24:44;18.90;89.90
40758;DHT22;26462;47.384;19.218;2023-04-24T10:27:13;18.80;89.50
40758;DHT22;26462;47.384;19.218;2023-04-24T10:29:43;18.80;89.20
40758;DHT22;26462;47.384;19.218;2023-04-24T10:32:11;18.60;90.30
40758;DHT22;26462;47.384;19.218;2023-04-24T10:34:38;18.60;91.50
40758;DHT22;26462;47.384;19.218;2023-04-24T10:37:06;18.80;90.70
40758;DHT22;26462;47.384;19.218;2023-04-24T10:39:33;18.90;90.00
40758;DHT22;26462;47.384;19.218;2023-04-24T10:42:10;19.00;86.90
40758;DHT22;26462;47.384;19.218;2023-04-24T10:44:40;19.00;86.30
40758;DHT22;26462;47.384;19.218;2023-04-24T10:47:13;19.00;86.50
40758;DHT22;26462;47.384;19.218;2023-04-24T10:49:40;18.80;84.70
40758;DHT22;26462;47.384;19.218;2023-04-24T10:52:09;18.80;86.20
40758;DHT22;26462;47.384;19.218;2023-04-24T10:54:45;18.80;85.70
40758;DHT22;26462;47.384;19.218;2023-04-24T10:59:51;18.60;86.00
40758;DHT22;26462;47.384;19.218;2023-04-24T11:02:19;18.30;85.20
40758;DHT22;26462;47.384;19.218;2023-04-24T11:05:06;18.40;84.60
40758;DHT22;26462;47.384;19.218;2023-04-24T11:11:02;18.20;87.30
40758;DHT22;26462;47.384;19.218;2023-04-24T11:16:20;18.30;89.10
40758;DHT22;26462;47.384;19.218;2023-04-24T11:18:52;18.40;88.30
40758;DHT22;26462;47.384;19.218;2023-04-24T11:21:44;18.60;88.20
40758;DHT22;26462;47.384;19.218;2023-04-24T11:27:21;19.00;86.40
40758;DHT22;26462;47.384;19.218;2023-04-24T11:37:28;18.90;85.20
40758;DHT22;26462;47.384;19.218;2023-04-24T11:39:56;18.70;86.40
40758;DHT22;26462;47.384;19.218;2023-04-24T11:42:24;18.50;87.10
40758;DHT22;26462;47.384;19.218;2023-04-24T11:44:53;18.40;88.70
40758;DHT22;26462;47.384;19.218;2023-04-24T11:47:32;18.30;88.10
40758;DHT22;26462;47.384;19.218;2023-04-24T11:50:01;18.10;89.00
40758;DHT22;26462;47.384;19.218;2023-04-24T11:52:30;18.00;89.00
40758;DHT22;26462;47.384;19.218;2023-04-24T11:54:57;17.90;89.00
40758;DHT22;26462;47.384;19.218;2023-04-24T11:57:26;17.80;89.60
40758;DHT22;26462;47.384;19.218;2023-04-24T12:00:01;17.70;90.10
40758;DHT22;26462;47.384;19.218;2023-04-24T12:02:37;17.70;90.30
40758;DHT22;26462;47.384;19.218;2023-04-24T12:05:06;17.60;90.70
40758;DHT22;26462;47.384;19.218;2023-04-24T12:07:41;17.50;91.40
40758;DHT22;26462;47.384;19.218;2023-04-24T12:10:11;17.40;92.70
40758;DHT22;26462;47.384;19.218;2023-04-24T12:12:38;17.40;92.80
40758;DHT22;26462;47.384;19.218;2023-04-24T12:15:09;17.50;93.30
40758;DHT22;26462;47.384;19.218;2023-04-24T12:17:41;17.70;92.90
40758;DHT22;26462;47.384;19.218;2023-04-24T12:20:09;17.80;93.20
40758;DHT22;26462;47.384;19.218;2023-04-24T12:22:56;17.90;92.80
40758;DHT22;26462;47.384;19.218;2023-04-24T12:25:31;17.80;93.10
40758;DHT22;26462;47.384;19.218;2023-04-24T12:30:48;17.40;94.10
40758;DHT22;26462;47.384;19.218;2023-04-24T12:33:19;17.30;95.80
40758;DHT22;26462;47.384;19.218;2023-04-24T12:35:50;17.20;97.60
40758;DHT22;26462;47.384;19.218;2023-04-24T12:38:22;17.20;99.90
40758;DHT22;26462;47.384;19.218;2023-04-24T12:41:05;17.10;99.90
40758;DHT22;26462;47.384;19.218;2023-04-24T12:43:32;17.20;99.90
40758;DHT22;26462;47.384;19.218;2023-04-24T12:45:59;17.30;99.90
40758;DHT22;26462;47.384;19.218;2023-04-24T12:48:27;17.40;99.90
40758;DHT22;26462;47.384;19.218;2023-04-24T12:50:57;17.40;99.90
40758;DHT22;26462;47.384;19.218;2023-04-24T12:53:28;17.40;99.90
40758;DHT22;26462;47.384;19.218;2023-04-24T12:55:56;17.50;99.90
40758;DHT22;26462;47.384;19.218;2023-04-24T12:58:23;17.60;99.90
40758;DHT22;26462;47.384;19.218;2023-04-24T13:00:51;17.50;99.90
40758;DHT22;26462;47.384;19.218;2023-04-24T13:03:18;17.60;99.90
40758;DHT22;26462;47.384;19.218;2023-04-24T13:05:46;17.50;99.90
40758;DHT22;26462;47.384;19.218;2023-04-24T13:08:14;17.60;99.00
40758;DHT22;26462;47.384;19.218;2023-04-24T13:10:41;17.50;98.10
40758;DHT22;26462;47.384;19.218;2023-04-24T13:13:08;17.60;98.30
40758;DHT22;26462;47.384;19.218;2023-04-24T13:15:35;17.90;98.00
40758;DHT22;26462;47.384;19.218;2023-04-24T13:18:03;17.90;97.10
40758;DHT22;26462;47.384;19.218;2023-04-24T13:20:30;18.10;96.60
40758;DHT22;26462;47.384;19.218;2023-04-24T13:22:57;18.20;95.60
40758;DHT22;26462;47.384;19.218;2023-04-24T13:25:24;18.30;94.50
40758;DHT22;26462;47.384;19.218;2023-04-24T13:27:51;17.90;95.00
40758;DHT22;26462;47.384;19.218;2023-04-24T13:30:18;17.60;94.60
40758;DHT22;26462;47.384;19.218;2023-04-24T13:32:46;17.60;95.80
40758;DHT22;26462;47.384;19.218;2023-04-24T13:35:13;17.70;95.90
40758;DHT22;26462;47.384;19.218;2023-04-24T13:37:40;17.60;96.30
40758;DHT22;26462;47.384;19.218;2023-04-24T13:40:07;17.60;96.80
40758;DHT22;26462;47.384;19.218;2023-04-24T13:42:35;17.40;97.50
40758;DHT22;26462;47.384;19.218;2023-04-24T13:45:02;17.40;98.20
40758;DHT22;26462;47.384;19.218;2023-04-24T13:47:50;17.40;98.60
40758;DHT22;26462;47.384;19.218;2023-04-24T13:50:18;17.30;99.90
40758;DHT22;26462;47.384;19.218;2023-04-24T13:52:45;17.30;99.90
40758;DHT22;26462;47.384;19.218;2023-04-24T13:55:12;17.20;99.90
40758;DHT22;26462;47.384;19.218;2023-04-24T13:57:39;17.20;99.90
40758;DHT22;26462;47.384;19.218;2023-04-24T14:00:07;17.10;99.90
40758;DHT22;26462;47.384;19.218;2023-04-24T14:02:37;17.00;99.90
40758;DHT22;26462;47.384;19.218;2023-04-24T14:05:05;17.10;99.90
40758;DHT22;26462;47.384;19.218;2023-04-24T14:07:33;17.00;99.90
40758;DHT22;26462;47.384;19.218;2023-04-24T14:10:00;16.80;99.90
40758;DHT22;26462;47.384;19.218;2023-04-24T14:12:27;16.80;99.90
40758;DHT22;26462;47.384;19.218;2023-04-24T14:14:54;16.50;99.90
40758;DHT22;26462;47.384;19.218;2023-04-24T14:17:22;16.50;99.90
40758;DHT22;26462;47.384;19.218;2023-04-24T14:19:49;16.30;99.90
40758;DHT22;26462;47.384;19.218;2023-04-24T14:22:18;16.10;99.90
40758;DHT22;26462;47.384;19.218;2023-04-24T14:24:46;16.00;99.90
40758;DHT22;26462;47.384;19.218;2023-04-24T14:27:13;16.00;99.90
40758;DHT22;26462;47.384;19.218;2023-04-24T14:29:40;15.90;99.90
40758;DHT22;26462;47.384;19.218;2023-04-24T14:32:07;15.80;99.90
40758;DHT22;26462;47.384;19.218;2023-04-24T14:34:35;16.00;99.90
40758;DHT22;26462;47.384;19.218;2023-04-24T14:37:02;15.90;99.90
40758;DHT22;26462;47.384;19.218;2023-04-24T14:39:29;15.90;99.90
40758;DHT22;26462;47.384;19.218;2023-04-24T14:41:57;15.90;99.90
40758;DHT22;26462;47.384;19.218;2023-04-24T14:44:24;15.80;99.90
40758;DHT22;26462;47.384;19.218;2023-04-24T14:46:52;15.90;99.90
40758;DHT22;26462;47.384;19.218;2023-04-24T14:49:20;16.00;99.90
40758;DHT22;26462;47.384;19.218;2023-04-24T14:51:47;15.90;99.90
40758;DHT22;26462;47.384;19.218;2023-04-24T14:54:14;15.90;99.90
40758;DHT22;26462;47.384;19.218;2023-04-24T14:56:41;15.90;99.90
40758;DHT22;26462;47.384;19.218;2023-04-24T14:59:10;16.00;99.90
40758;DHT22;26462;47.384;19.218;2023-04-24T15:01:37;16.00;99.90
40758;DHT22;26462;47.384;19.218;2023-04-24T15:04:05;15.90;99.90
40758;DHT22;26462;47.384;19.218;2023-04-24T15:06:32;16.00;99.90
40758;DHT22;26462;47.384;19.218;2023-04-24T15:08:59;15.90;99.90
40758;DHT22;26462;47.384;19.218;2023-04-24T15:11:27;15.90;99.90
40758;DHT22;26462;47.384;19.218;2023-04-24T15:13:55;15.80;99.90
40758;DHT22;26462;47.384;19.218;2023-04-24T15:16:23;15.80;99.90
40758;DHT22;26462;47.384;19.218;2023-04-24T15:18:51;15.70;99.90
40758;DHT22;26462;47.384;19.218;2023-04-24T15:21:18;15.80;99.90
40758;DHT22;26462;47.384;19.218;2023-04-24T15:23:45;15.90;99.90
40758;DHT22;26462;47.384;19.218;2023-04-24T15:26:12;15.90;99.90
40758;DHT22;26462;47.384;19.218;2023-04-24T15:28:39;15.90;99.90
40758;DHT22;26462;47.384;19.218;2023-04-24T15:31:06;15.90;99.90
40758;DHT22;26462;47.384;19.218;2023-04-24T15:33:33;15.80;99.90
40758;DHT22;26462;47.384;19.218;2023-04-24T15:36:00;15.90;99.90
40758;DHT22;26462;47.384;19.218;2023-04-24T15:38:27;15.90;99.90
40758;DHT22;26462;47.384;19.218;2023-04-24T15:40:54;15.90;99.90
40758;DHT22;26462;47.384;19.218;2023-04-24T15:43:22;15.90;99.90
40758;DHT22;26462;47.384;19.218;2023-04-24T15:45:50;15.80;99.90
40758;DHT22;26462;47.384;19.218;2023-04-24T15:48:18;15.80;99.90